createdAt,value
2023-04-16T00:01:17.020Z,7.60
2023-04-16T00:03:45.152Z,7.57
2023-04-16T00:06:13.180Z,7.57
2023-04-16T00:08:41.217Z,7.56
2023-04-16T00:11:09.221Z,7.52
2023-04-16T00:13:37.294Z,7.53
2023-04-16T00:16:05.659Z,7.51
2023-04-16T00:18:33.580Z,7.52
2023-04-16T00:21:01.779Z,7.50
2023-04-16T00:23:29.654Z,7.48
2023-04-16T00:26:00.130Z,7.48
2023-04-16T00:28:28.138Z,7.44
2023-04-16T00:30:56.343Z,7.45
2023-04-16T00:33:24.463Z,7.47
2023-04-16T00:35:53.099Z,7.43
2023-04-16T00:38:21.049Z,7.43
2023-04-16T00:40:48.968Z,7.42
2023-04-16T00:43:24.920Z,7.41
2023-04-16T00:45:56.238Z,7.42
2023-04-16T00:48:24.790Z,7.44
2023-04-16T00:50:52.609Z,7.42
2023-04-16T00:53:21.549Z,7.39
2023-04-16T00:55:50.023Z,7.39
2023-04-16T00:58:18.341Z,7.37
2023-04-16T01:00:46.528Z,7.35
2023-04-16T01:03:14.990Z,7.36
2023-04-16T01:05:46.003Z,7.35
2023-04-16T01:08:17.666Z,7.34
2023-04-16T01:10:45.954Z,7.33
2023-04-16T01:13:15.016Z,7.33
2023-04-16T01:15:42.908Z,7.33
2023-04-16T01:18:16.158Z,7.31
2023-04-16T01:20:44.945Z,7.29
2023-04-16T01:23:13.086Z,7.25
2023-04-16T01:25:41.252Z,7.25
2023-04-16T01:28:09.087Z,7.25
2023-04-16T01:30:36.989Z,7.25
2023-04-16T01:33:12.533Z,7.23
2023-04-16T01:35:42.132Z,7.22
2023-04-16T01:38:10.701Z,7.21
2023-04-16T01:40:38.683Z,7.20
2023-04-16T01:43:06.771Z,7.22
2023-04-16T01:45:35.372Z,7.19
2023-04-16T01:48:03.746Z,7.19
2023-04-16T01:50:31.948Z,7.18
2023-04-16T01:52:59.779Z,7.18
2023-04-16T01:55:27.614Z,7.19
2023-04-16T01:57:55.557Z,7.17
2023-04-16T02:00:26.568Z,7.17
2023-04-16T02:02:54.457Z,7.15
2023-04-16T02:05:27.748Z,7.16
2023-04-16T02:07:55.945Z,7.15
2023-04-16T02:10:24.183Z,7.14
2023-04-16T02:12:52.183Z,7.13
2023-04-16T02:15:20.667Z,7.12
2023-04-16T02:17:51.055Z,7.13
2023-04-16T02:20:19.854Z,7.11
2023-04-16T02:22:56.291Z,7.12
2023-04-16T02:25:25.210Z,7.12
2023-04-16T02:27:54.368Z,7.13
2023-04-16T02:30:31.229Z,7.13
2023-04-16T02:32:59.081Z,7.14
2023-04-16T02:35:27.810Z,7.13
2023-04-16T02:37:55.644Z,7.12
2023-04-16T02:40:23.566Z,7.11
2023-04-16T02:42:51.600Z,7.10
2023-04-16T02:45:20.397Z,7.11
2023-04-16T02:47:49.855Z,7.12
2023-04-16T02:50:18.011Z,7.10
2023-04-16T02:52:46.114Z,7.09
2023-04-16T02:55:15.155Z,7.05
2023-04-16T02:57:43.003Z,7.05
2023-04-16T03:00:11.273Z,7.05
2023-04-16T03:02:39.485Z,7.05
2023-04-16T03:05:08.466Z,7.01
2023-04-16T03:07:36.548Z,7.00
2023-04-16T03:10:05.893Z,7.00
2023-04-16T03:12:33.760Z,6.97
2023-04-16T03:15:01.726Z,6.95
2023-04-16T03:17:30.576Z,6.95
2023-04-16T03:19:58.625Z,6.96
2023-04-16T03:22:27.130Z,6.92
2023-04-16T03:24:55.080Z,6.89
2023-04-16T03:27:22.876Z,6.87
2023-04-16T03:29:51.086Z,6.87
2023-04-16T03:32:19.366Z,6.88
2023-04-16T03:34:47.287Z,6.88
2023-04-16T03:37:15.929Z,6.89
2023-04-16T03:39:43.916Z,6.88
2023-04-16T03:42:12.152Z,6.89
2023-04-16T03:44:39.997Z,6.88
2023-04-16T03:47:08.155Z,6.90
2023-04-16T03:49:36.078Z,6.90
2023-04-16T03:52:03.965Z,6.90
2023-04-16T03:54:31.972Z,6.87
2023-04-16T03:57:08.767Z,6.86
2023-04-16T03:59:36.935Z,6.86
2023-04-16T04:02:55.472Z,6.86
2023-04-16T04:05:24.255Z,6.88
2023-04-16T04:07:53.935Z,6.87
2023-04-16T04:10:21.884Z,6.88
2023-04-16T04:12:49.909Z,6.89
2023-04-16T04:15:18.805Z,6.93
2023-04-16T04:17:46.868Z,6.93
2023-04-16T04:20:14.861Z,6.99
2023-04-16T04:22:45.274Z,7.00
2023-04-16T04:25:14.766Z,7.04
2023-04-16T04:27:43.184Z,7.08
2023-04-16T04:34:38.578Z,7.18
2023-04-16T04:37:07.548Z,7.21
2023-04-16T04:39:36.563Z,7.20
2023-04-16T04:42:04.641Z,7.23
2023-04-16T04:44:33.335Z,7.26
2023-04-16T04:47:01.296Z,7.30
2023-04-16T04:49:30.498Z,7.33
2023-04-16T04:51:58.393Z,7.37
2023-04-16T04:54:26.504Z,7.40
2023-04-16T04:56:54.721Z,7.44
2023-04-16T04:59:23.862Z,7.47
2023-04-16T05:01:53.470Z,7.50
2023-04-16T05:04:21.471Z,7.53
2023-04-16T05:06:49.363Z,7.56
2023-04-16T05:09:18.036Z,7.58
2023-04-16T05:11:46.466Z,7.62
2023-04-16T05:14:15.380Z,7.67
2023-04-16T05:16:43.399Z,7.72
2023-04-16T05:19:11.622Z,7.74
2023-04-16T05:21:40.378Z,7.76
2023-04-16T05:24:08.302Z,7.78
2023-04-16T05:26:36.341Z,7.81
2023-04-16T05:29:04.642Z,7.90
2023-04-16T05:31:32.755Z,7.97
2023-04-16T05:34:00.713Z,8.03
2023-04-16T05:36:28.827Z,8.06
2023-04-16T05:38:56.797Z,8.07
2023-04-16T05:41:24.772Z,8.09
2023-04-16T05:43:52.721Z,8.11
2023-04-16T05:46:20.833Z,8.14
2023-04-16T05:48:48.996Z,8.15
2023-04-16T05:51:17.281Z,8.17
2023-04-16T05:53:45.727Z,8.21
2023-04-16T05:56:13.764Z,8.21
2023-04-16T05:58:41.843Z,8.24
2023-04-16T06:01:11.732Z,8.23
2023-04-16T06:03:40.044Z,8.25
2023-04-16T06:06:09.194Z,8.28
2023-04-16T06:08:37.090Z,8.35
2023-04-16T06:11:05.092Z,8.41
2023-04-16T06:13:34.222Z,8.45
2023-04-16T06:16:02.385Z,8.46
2023-04-16T06:18:30.343Z,8.46
2023-04-16T06:21:01.568Z,8.51
2023-04-16T06:23:29.638Z,8.55
2023-04-16T06:25:57.796Z,8.61
2023-04-16T06:28:25.712Z,8.70
2023-04-16T06:30:53.915Z,8.75
2023-04-16T06:33:21.872Z,8.75
2023-04-16T06:35:49.925Z,8.75
2023-04-16T06:38:18.722Z,8.76
2023-04-16T06:40:46.685Z,8.79
2023-04-16T06:43:15.863Z,8.78
2023-04-16T06:45:43.770Z,8.77
2023-04-16T06:48:11.799Z,8.75
2023-04-16T06:50:39.684Z,8.81
2023-04-16T06:53:08.065Z,8.82
2023-04-16T06:55:35.923Z,8.80
2023-04-16T06:58:03.870Z,8.78
2023-04-16T07:00:31.751Z,8.79
2023-04-16T07:03:01.675Z,8.81
2023-04-16T07:05:30.070Z,8.74
2023-04-16T07:07:59.472Z,8.70
2023-04-16T07:10:27.658Z,8.81
2023-04-16T07:12:55.896Z,8.89
2023-04-16T07:15:24.549Z,8.85
2023-04-16T07:17:54.166Z,8.83
2023-04-16T07:20:22.123Z,8.87
2023-04-16T07:22:50.309Z,9.00
2023-04-16T07:25:18.268Z,9.09
2023-04-16T07:27:46.657Z,9.10
2023-04-16T07:30:14.501Z,9.10
2023-04-16T07:32:42.823Z,9.15
2023-04-16T07:35:11.017Z,9.19
2023-04-16T07:37:39.188Z,9.24
2023-04-16T07:40:08.416Z,9.24
2023-04-16T07:42:36.907Z,9.22
2023-04-16T07:45:06.035Z,9.20
2023-04-16T07:47:34.081Z,9.28
2023-04-16T07:50:02.382Z,9.33
2023-04-16T07:52:30.512Z,9.35
2023-04-16T07:54:58.596Z,9.38
2023-04-16T07:57:27.163Z,9.45
2023-04-16T07:59:55.398Z,9.46
2023-04-16T08:02:23.534Z,9.43
2023-04-16T08:04:52.055Z,9.48
2023-04-16T08:07:20.472Z,9.54
2023-04-16T08:09:52.027Z,9.54
2023-04-16T08:12:21.436Z,9.52
2023-04-16T08:14:49.406Z,9.55
2023-04-16T08:17:18.031Z,9.60
2023-04-16T08:19:46.538Z,9.67
2023-04-16T08:22:14.850Z,9.75
2023-04-16T08:24:43.022Z,9.80
2023-04-16T08:27:19.055Z,9.82
2023-04-16T08:29:48.805Z,9.91
2023-04-16T08:32:17.363Z,9.93
2023-04-16T08:34:45.614Z,9.95
2023-04-16T08:37:14.270Z,10.06
2023-04-16T08:39:42.792Z,10.22
2023-04-16T08:42:23.568Z,10.33
2023-04-16T08:45:01.303Z,10.40
2023-04-16T08:47:32.519Z,10.48
2023-04-16T08:50:01.081Z,10.56
2023-04-16T08:52:31.468Z,10.64
2023-04-16T08:55:12.212Z,10.72
2023-04-16T08:58:27.556Z,10.97
2023-04-16T09:00:56.065Z,11.18
2023-04-16T09:03:24.516Z,11.31
2023-04-16T09:05:55.579Z,11.50
2023-04-16T09:08:24.149Z,11.52
2023-04-16T09:10:53.017Z,11.60
2023-04-16T09:13:22.312Z,11.65
2023-04-16T09:15:54.221Z,11.76
2023-04-16T09:18:22.274Z,11.72
2023-04-16T09:20:51.626Z,11.75
2023-04-16T09:23:19.760Z,11.82
2023-04-16T09:25:47.881Z,11.89
2023-04-16T09:28:41.551Z,11.89
2023-04-16T09:31:10.782Z,11.77
2023-04-16T09:33:39.586Z,11.81
2023-04-16T09:36:07.907Z,11.95
2023-04-16T09:38:51.017Z,12.09
2023-04-16T09:41:20.208Z,12.25
2023-04-16T09:44:02.638Z,12.25
2023-04-16T09:47:06.013Z,12.16
2023-04-16T09:49:36.218Z,12.17
2023-04-16T09:52:12.857Z,12.28
2023-04-16T09:54:52.081Z,12.30
2023-04-16T09:57:24.263Z,12.36
2023-04-16T10:00:01.882Z,12.34
2023-04-16T10:02:36.385Z,12.36
2023-04-16T10:05:04.982Z,12.41
2023-04-16T10:07:37.275Z,12.55
2023-04-16T10:10:06.369Z,12.64
2023-04-16T10:12:34.593Z,12.61
2023-04-16T10:15:02.810Z,12.65
2023-04-16T10:17:31.842Z,12.63
2023-04-16T10:20:01.804Z,12.63
2023-04-16T10:22:30.418Z,12.69
2023-04-16T10:24:58.910Z,12.71
2023-04-16T10:27:27.266Z,12.68
2023-04-16T10:29:56.822Z,12.70
2023-04-16T10:32:28.649Z,12.81
2023-04-16T10:34:56.740Z,12.92
2023-04-16T10:37:32.181Z,12.96
2023-04-16T10:40:01.384Z,12.95
2023-04-16T10:42:29.525Z,12.84
2023-04-16T10:45:00.384Z,12.86
2023-04-16T10:47:29.505Z,13.22
2023-04-16T10:49:58.269Z,13.41
2023-04-16T10:52:29.353Z,13.46
2023-04-16T10:54:59.629Z,13.64
2023-04-16T10:57:29.325Z,13.75
2023-04-16T10:59:59.335Z,13.84
2023-04-16T11:04:38.107Z,14.09
2023-04-16T11:07:15.434Z,13.97
2023-04-16T11:09:56.268Z,13.72
2023-04-16T11:12:31.404Z,13.44
2023-04-16T11:15:04.695Z,13.33
2023-04-16T11:17:37.330Z,13.16
2023-04-16T11:20:17.738Z,12.90
2023-04-16T11:22:50.079Z,12.75
2023-04-16T11:25:24.655Z,12.69
2023-04-16T11:27:53.770Z,12.57
2023-04-16T11:30:36.977Z,12.45
2023-04-16T11:33:06.010Z,12.44
2023-04-16T11:35:34.074Z,12.45
2023-04-16T11:38:02.480Z,12.41
2023-04-16T11:40:31.513Z,12.44
2023-04-16T11:43:15.137Z,12.48
2023-04-16T11:46:10.041Z,12.52
2023-04-16T11:48:53.156Z,12.72
2023-04-16T11:51:23.229Z,12.96
2023-04-16T11:53:53.343Z,13.15
2023-04-16T11:56:32.382Z,13.38
2023-04-16T11:59:11.245Z,13.58
2023-04-16T12:01:41.601Z,13.81
2023-04-16T12:04:10.261Z,13.65
2023-04-16T12:06:38.491Z,13.37
2023-04-16T12:09:27.527Z,13.43
2023-04-16T12:11:55.576Z,13.68
2023-04-16T12:14:23.925Z,13.57
2023-04-16T12:16:52.090Z,13.27
2023-04-16T12:19:20.113Z,13.31
2023-04-16T12:21:49.765Z,13.31
2023-04-16T12:24:24.184Z,13.00
2023-04-16T12:26:56.763Z,12.83
2023-04-16T12:29:28.206Z,12.88
2023-04-16T12:31:56.415Z,13.10
2023-04-16T12:34:48.451Z,13.44
2023-04-16T12:37:13.065Z,13.86
2023-04-16T12:39:41.528Z,14.23
2023-04-16T12:42:11.483Z,14.57
2023-04-16T12:44:40.688Z,14.91
2023-04-16T12:47:08.588Z,15.18
2023-04-16T12:49:37.334Z,15.31
2023-04-16T12:52:05.982Z,15.54
2023-04-16T12:54:34.179Z,15.52
2023-04-16T12:57:02.125Z,15.21
2023-04-16T12:59:30.161Z,15.04
2023-04-16T13:02:01.688Z,14.88
2023-04-16T13:04:29.991Z,14.91
2023-04-16T13:06:58.221Z,14.96
2023-04-16T13:09:27.108Z,15.17
2023-04-16T13:11:55.233Z,15.48
2023-04-16T13:14:23.117Z,15.63
2023-04-16T13:16:50.975Z,15.50
2023-04-16T13:19:19.354Z,15.44
2023-04-16T13:21:47.207Z,15.46
2023-04-16T13:24:15.181Z,15.30
2023-04-16T13:26:43.534Z,14.92
2023-04-16T13:29:11.904Z,14.81
2023-04-16T13:31:40.603Z,14.57
2023-04-16T13:34:08.689Z,14.40
2023-04-16T13:36:36.879Z,14.40
2023-04-16T13:39:05.429Z,14.39
2023-04-16T13:41:33.432Z,14.32
2023-04-16T13:44:01.357Z,14.02
2023-04-16T13:46:29.952Z,13.89
2023-04-16T13:48:58.013Z,13.92
2023-04-16T13:51:27.776Z,14.07
2023-04-16T13:53:56.260Z,14.16
2023-04-16T13:56:25.533Z,14.15
2023-04-16T13:58:53.668Z,14.20
2023-04-16T14:01:21.831Z,14.13
2023-04-16T14:03:49.997Z,14.06
2023-04-16T14:06:18.265Z,14.20
2023-04-16T14:08:46.318Z,14.16
2023-04-16T14:11:14.588Z,14.26
2023-04-16T14:13:43.572Z,14.44
2023-04-16T14:16:14.024Z,14.34
2023-04-16T14:18:42.542Z,14.37
2023-04-16T14:21:10.584Z,14.26
2023-04-16T14:23:38.538Z,14.09
2023-04-16T14:26:07.432Z,13.89
2023-04-16T14:28:35.852Z,13.75
2023-04-16T14:31:03.871Z,13.86
2023-04-16T14:33:32.364Z,14.03
2023-04-16T14:36:02.709Z,14.17
2023-04-16T14:38:31.411Z,14.20
2023-04-16T14:41:00.569Z,13.93
2023-04-16T14:43:28.715Z,13.88
2023-04-16T14:45:58.765Z,13.79
2023-04-16T14:48:26.715Z,13.74
2023-04-16T14:50:54.666Z,13.88
2023-04-16T14:53:23.378Z,13.97
2023-04-16T14:55:58.178Z,14.12
2023-04-16T14:58:26.537Z,14.24
2023-04-16T15:00:54.523Z,14.38
2023-04-16T15:03:22.820Z,14.47
2023-04-16T15:05:55.763Z,14.56
2023-04-16T15:08:24.558Z,14.60
2023-04-16T15:10:52.414Z,14.52
2023-04-16T15:13:22.007Z,14.41
2023-04-16T15:15:50.206Z,14.42
2023-04-16T15:18:18.180Z,14.44
2023-04-16T15:20:46.092Z,14.45
2023-04-16T15:23:14.283Z,14.34
2023-04-16T15:25:42.191Z,14.36
2023-04-16T15:28:13.050Z,14.31
2023-04-16T15:30:41.602Z,14.34
2023-04-16T15:33:12.367Z,14.23
2023-04-16T15:35:41.649Z,13.97
2023-04-16T15:38:09.963Z,13.99
2023-04-16T15:40:37.999Z,14.05
2023-04-16T15:43:06.282Z,14.04
2023-04-16T15:45:34.648Z,14.05
2023-04-16T15:48:05.556Z,13.89
2023-04-16T15:50:41.771Z,13.86
2023-04-16T15:53:13.123Z,13.82
2023-04-16T15:55:42.798Z,13.69
2023-04-16T15:58:10.862Z,13.68
2023-04-16T16:00:39.028Z,13.67
2023-04-16T16:03:07.258Z,13.54
2023-04-16T16:05:35.330Z,13.45
2023-04-16T16:08:04.553Z,13.28
2023-04-16T16:10:32.417Z,13.22
2023-04-16T16:13:05.352Z,13.15
2023-04-16T16:15:33.392Z,13.00
2023-04-16T16:18:01.277Z,12.91
2023-04-16T16:20:29.910Z,12.97
2023-04-16T16:22:58.040Z,12.82
2023-04-16T16:25:26.438Z,12.68
2023-04-16T16:27:54.431Z,12.54
2023-04-16T16:30:22.414Z,12.41
2023-04-16T16:32:52.518Z,12.32
2023-04-16T16:35:20.647Z,12.28
2023-04-16T16:37:48.585Z,12.21
2023-04-16T16:40:16.393Z,12.13
2023-04-16T16:42:44.323Z,12.05
2023-04-16T16:45:12.201Z,11.98
2023-04-16T16:47:40.411Z,11.91
2023-04-16T16:50:11.357Z,11.84
2023-04-16T16:52:39.211Z,11.79
2023-04-16T16:55:10.877Z,11.80
2023-04-16T16:57:39.163Z,11.74
2023-04-16T17:00:14.920Z,11.62
2023-04-16T17:02:43.528Z,11.59
2023-04-16T17:05:13.130Z,11.55
2023-04-16T17:07:41.470Z,11.51
2023-04-16T17:10:13.050Z,11.46
2023-04-16T17:12:41.100Z,11.42
2023-04-16T17:15:09.559Z,11.36
2023-04-16T17:17:37.603Z,11.32
2023-04-16T17:20:09.694Z,11.25
2023-04-16T17:22:38.313Z,11.13
2023-04-16T17:25:08.467Z,11.03
2023-04-16T17:27:36.710Z,10.94
2023-04-16T17:30:05.990Z,10.86
2023-04-16T17:32:34.067Z,10.76
2023-04-16T17:35:04.337Z,10.67
2023-04-16T17:37:32.780Z,10.60
2023-04-16T17:40:00.957Z,10.50
2023-04-16T17:42:28.952Z,10.39
2023-04-16T17:44:57.057Z,10.34
2023-04-16T17:47:24.985Z,10.29
2023-04-16T17:49:54.713Z,10.21
2023-04-16T17:52:23.013Z,10.13
2023-04-16T17:54:51.076Z,10.08
2023-04-16T17:57:19.042Z,10.01
2023-04-16T17:59:46.954Z,9.96
2023-04-16T18:02:15.053Z,9.90
2023-04-16T18:04:43.395Z,9.84
2023-04-16T18:07:14.516Z,9.78
2023-04-16T18:09:42.827Z,9.70
2023-04-16T18:12:10.992Z,9.68
2023-04-16T18:14:40.771Z,9.61
2023-04-16T18:17:08.750Z,9.61
2023-04-16T18:19:37.305Z,9.52
2023-04-16T18:22:05.442Z,9.47
2023-04-16T18:24:35.480Z,9.42
2023-04-16T18:27:04.086Z,9.37
2023-04-16T18:29:33.861Z,9.34
2023-04-16T18:32:04.414Z,9.29
2023-04-16T18:34:32.936Z,9.21
2023-04-16T18:37:00.906Z,9.15
2023-04-16T18:39:28.866Z,9.09
2023-04-16T18:41:57.965Z,9.05
2023-04-16T18:44:26.436Z,9.00
2023-04-16T18:46:55.684Z,8.95
2023-04-16T18:49:24.043Z,8.91
2023-04-16T18:51:55.723Z,8.88
2023-04-16T18:54:23.745Z,8.82
2023-04-16T18:56:51.901Z,8.73
2023-04-16T18:59:20.094Z,8.71
2023-04-16T19:04:34.982Z,8.58
2023-04-16T19:07:03.689Z,8.51
2023-04-16T19:09:31.737Z,8.47
2023-04-16T19:11:59.978Z,8.42
2023-04-16T19:14:28.106Z,8.38
2023-04-16T19:16:56.373Z,8.35
2023-04-16T19:19:24.472Z,8.32
2023-04-16T19:21:52.363Z,8.23
2023-04-16T19:24:20.279Z,8.19
2023-04-16T19:26:48.321Z,8.14
2023-04-16T19:29:18.257Z,8.10
2023-04-16T19:31:47.167Z,8.07
2023-04-16T19:34:15.845Z,8.03
2023-04-16T19:36:45.116Z,7.98
2023-04-16T19:39:13.479Z,7.93
2023-04-16T19:41:42.074Z,7.88
2023-04-16T19:44:10.952Z,7.81
2023-04-16T19:46:38.864Z,7.76
2023-04-16T19:49:06.769Z,7.73
2023-04-16T19:51:34.888Z,7.72
2023-04-16T19:54:02.803Z,7.70
2023-04-16T19:56:30.762Z,7.67
2023-04-16T19:58:59.039Z,7.64
2023-04-16T20:01:28.296Z,7.66
2023-04-16T20:03:56.274Z,7.59
2023-04-16T20:06:25.350Z,7.58
2023-04-16T20:08:53.272Z,7.52
2023-04-16T20:11:21.927Z,7.47
2023-04-16T20:13:49.803Z,7.42
2023-04-16T20:16:23.626Z,7.38
2023-04-16T20:18:54.251Z,7.34
2023-04-16T20:21:22.262Z,7.31
2023-04-16T20:23:50.100Z,7.27
2023-04-16T20:26:18.608Z,7.22
2023-04-16T20:28:46.840Z,7.19
2023-04-16T20:31:15.389Z,7.15
2023-04-16T20:33:43.578Z,7.12
2023-04-16T20:36:11.542Z,7.07
2023-04-16T20:38:39.651Z,7.03
2023-04-16T20:41:10.517Z,7.00
2023-04-16T20:43:41.083Z,6.97
2023-04-16T20:46:10.980Z,6.90
2023-04-16T20:48:39.048Z,6.87
2023-04-16T20:51:10.284Z,6.84
2023-04-16T20:53:38.407Z,6.78
2023-04-16T20:56:57.380Z,6.72
2023-04-16T20:59:26.507Z,6.69
2023-04-16T21:01:55.003Z,6.66
2023-04-16T21:04:23.499Z,6.62
2023-04-16T21:06:53.716Z,6.60
2023-04-16T21:09:21.910Z,6.58
2023-04-16T21:11:50.010Z,6.56
2023-04-16T21:14:17.832Z,6.54
2023-04-16T21:16:45.898Z,6.51
2023-04-16T21:19:13.918Z,6.47
2023-04-16T21:21:42.350Z,6.43
2023-04-16T21:24:10.277Z,6.41
2023-04-16T21:26:38.178Z,6.40
2023-04-16T21:29:06.125Z,6.38
2023-04-16T21:31:34.461Z,6.35
2023-04-16T21:34:02.464Z,6.33
2023-04-16T21:36:32.042Z,6.30
2023-04-16T21:39:00.127Z,6.29
2023-04-16T21:41:28.292Z,6.28
2023-04-16T21:43:56.217Z,6.27
2023-04-16T21:46:25.426Z,6.26
2023-04-16T21:48:53.827Z,6.25
2023-04-16T21:51:31.018Z,6.22
2023-04-16T21:53:59.033Z,6.24
2023-04-16T21:56:27.904Z,6.23
2023-04-16T21:58:55.775Z,6.19
2023-04-16T22:01:23.638Z,6.22
2023-04-16T22:03:52.252Z,6.20
2023-04-16T22:06:20.670Z,6.15
2023-04-16T22:08:49.942Z,6.09
2023-04-16T22:11:18.444Z,6.01
2023-04-16T22:13:47.758Z,5.90
2023-04-16T22:16:15.859Z,5.78
2023-04-16T22:18:43.857Z,5.65
2023-04-16T22:21:11.818Z,5.56
2023-04-16T22:23:39.569Z,5.48
2023-04-16T22:26:09.174Z,5.43
2023-04-16T22:28:37.056Z,5.38
2023-04-16T22:31:05.092Z,5.32
2023-04-16T22:33:32.912Z,5.27
2023-04-16T22:36:00.915Z,5.25
2023-04-16T22:38:28.985Z,5.21
2023-04-16T22:40:56.912Z,5.16
2023-04-16T22:43:24.798Z,5.08
2023-04-16T22:46:04.498Z,5.02
2023-04-16T22:48:36.547Z,4.97
2023-04-16T22:51:06.437Z,4.92
2023-04-16T22:53:34.928Z,4.85
2023-04-16T22:56:02.761Z,4.78
2023-04-16T22:58:30.965Z,4.74
2023-04-16T23:01:01.718Z,4.71
2023-04-16T23:03:30.897Z,4.71
2023-04-16T23:05:58.936Z,4.72
2023-04-16T23:08:26.807Z,4.74
2023-04-16T23:10:54.780Z,4.75
2023-04-16T23:13:22.645Z,4.78
2023-04-16T23:15:51.554Z,4.84
2023-04-16T23:18:19.410Z,4.89
2023-04-16T23:20:50.984Z,4.93
2023-04-16T23:23:19.174Z,4.97
2023-04-16T23:25:47.149Z,5.01
2023-04-16T23:28:15.121Z,5.05
2023-04-16T23:30:42.905Z,5.06
2023-04-16T23:33:10.839Z,5.05
2023-04-16T23:35:38.702Z,5.07
2023-04-16T23:38:06.570Z,5.08
2023-04-16T23:40:34.564Z,5.13
2023-04-16T23:43:02.450Z,5.17
2023-04-16T23:45:30.516Z,5.21
2023-04-16T23:47:58.476Z,5.22
2023-04-16T23:50:26.423Z,5.25
2023-04-16T23:52:54.307Z,5.29
2023-04-16T23:55:22.569Z,5.32
2023-04-16T23:57:50.623Z,5.37
